Huvudsida
METAR-TAF:

METAR-TAF

Flygplatser :

Åre Östersund Airport

Östersund-Frösön, Sverige

latitud: 63-11N, longitud: 014-30E, höjd: 376 m

Aktuellt väderrapport

Denna rapport gjordes för 23 minuter sedan, klockan 23:20 UTC
Vind 6 kt från ost
Temperatur 0°C
Fuktighet 100%
Tryck 1014 hPa
Sikt: 2100 m
fuktdis

METAR: ESNZ 182320Z AUTO 10006KT 2100 BR BKN002/// OVC004/// M00/M00 Q1014

Tid: 00:43 (23:43 UTC)

Väderprognos

Denna rapport gjordes för 3 timmar och 13 minuter sedan, klockan 20:30 UTC
Prognos gäller från 18 kl. 21 UTC till 18 kl. 23 UTC
Vind 7 kt från ost/sydost
Sikt: 6000 m
Mulet på en höjd av 300 ft
lätt snö
Temporärt
från 18 kl. 21 UTC till 18 kl. 23 UTC
Sikt: 2000 m
Brutna moln på en höjd av 500 ft

TAF: ESNZ 182030Z 1821/1823 11007KT 6000 -SN OVC003 TEMPO 1821/1823 2000 BKN005

Aktuella väderrapporter och prognoser från 4000 flygplatser (METAR- och TAF-rapporter).

De tillgängliga stationerna syns som gula och röda prickar på kartan.

För musen över prickarna för att se namnen på stationerna.

Klicka sedan för att få väderrapporter och prognoser.

För att ändra kartan: Klicka på de gröna knapparna med ett svart kors på för att zooma in; den gröna knappen med ett streck på för att zooma ut; eller på de gröna pilarna för angränsande kartor.


METAR-TAF: